createdAt,value
2023-04-09T00:01:58.953Z,33.27
2023-04-09T00:05:02.984Z,32.83
2023-04-09T00:08:06.581Z,35.37
2023-04-09T00:11:09.631Z,32.40
2023-04-09T00:14:13.916Z,34.10
2023-04-09T00:17:17.029Z,34.23
2023-04-09T00:20:20.099Z,35.63
2023-04-09T00:23:23.299Z,33.43
2023-04-09T00:26:26.562Z,35.37
2023-04-09T00:29:31.365Z,36.40
2023-04-09T00:32:34.644Z,35.83
2023-04-09T00:35:37.832Z,34.13
2023-04-09T00:38:40.829Z,38.07
2023-04-09T00:41:44.110Z,34.83
2023-04-09T00:44:48.460Z,37.70
2023-04-09T00:47:53.652Z,35.93
2023-04-09T00:50:56.825Z,36.33
2023-04-09T00:54:00.053Z,34.20
2023-04-09T00:57:05.092Z,34.47
2023-04-09T01:00:14.766Z,36.43
2023-04-09T01:03:18.317Z,35.20
2023-04-09T01:06:29.368Z,36.63
2023-04-09T01:09:38.316Z,34.87
2023-04-09T01:12:56.140Z,34.93
2023-04-09T01:16:03.163Z,33.80
2023-04-09T01:19:20.368Z,34.90
2023-04-09T01:22:34.701Z,34.93
2023-04-09T01:25:54.867Z,34.00
2023-04-09T01:29:01.610Z,32.53
2023-04-09T01:32:08.262Z,36.67
2023-04-09T01:35:13.439Z,34.30
2023-04-09T01:38:20.945Z,33.30
2023-04-09T01:41:26.041Z,35.43
2023-04-09T01:44:31.373Z,34.50
2023-04-09T01:47:35.563Z,34.47
2023-04-09T01:50:39.200Z,34.43
2023-04-09T01:53:42.789Z,32.13
2023-04-09T01:56:49.019Z,34.20
2023-04-09T01:59:53.531Z,36.97
2023-04-09T02:03:01.363Z,34.97
2023-04-09T02:06:14.456Z,34.87
2023-04-09T02:09:19.821Z,36.60
2023-04-09T02:12:24.139Z,36.00
2023-04-09T02:15:32.119Z,37.57
2023-04-09T02:18:35.366Z,37.77
2023-04-09T02:21:38.348Z,36.33
2023-04-09T02:24:41.649Z,37.57
2023-04-09T02:27:44.739Z,35.70
2023-04-09T02:30:49.131Z,36.67
2023-04-09T02:33:54.166Z,35.53
2023-04-09T02:36:57.830Z,38.33
2023-04-09T02:40:00.840Z,36.53
2023-04-09T02:43:04.038Z,34.53
2023-04-09T02:46:08.866Z,36.13
2023-04-09T02:49:12.882Z,36.43
2023-04-09T02:52:15.946Z,34.60
2023-04-09T02:55:20.170Z,37.37
2023-04-09T02:58:23.258Z,35.73
2023-04-09T03:01:27.747Z,36.33
2023-04-09T03:04:30.731Z,36.27
2023-04-09T03:07:33.763Z,35.43
2023-04-09T03:10:36.798Z,37.00
2023-04-09T03:13:39.777Z,35.77
2023-04-09T03:16:44.277Z,38.83
2023-04-09T03:19:47.308Z,34.70
2023-04-09T03:22:52.095Z,36.00
2023-04-09T03:26:13.273Z,40.30
2023-04-09T03:29:22.459Z,36.53
2023-04-09T03:32:27.395Z,40.33
2023-04-09T03:35:31.621Z,44.70
2023-04-09T03:38:36.599Z,42.50
2023-04-09T03:41:46.193Z,41.70
2023-04-09T03:44:55.253Z,40.83
2023-04-09T03:48:12.780Z,40.77
2023-04-09T03:51:16.394Z,42.07
2023-04-09T03:54:25.701Z,42.13
2023-04-09T03:57:30.716Z,42.27
2023-04-09T04:00:34.538Z,45.53
2023-04-09T04:03:59.399Z,44.00
2023-04-09T04:07:08.698Z,43.77
2023-04-09T04:10:16.668Z,44.53
2023-04-09T04:13:23.001Z,43.63
2023-04-09T04:16:32.786Z,42.87
2023-04-09T04:19:39.698Z,42.03
2023-04-09T04:22:42.755Z,38.93
2023-04-09T04:25:46.155Z,35.73
2023-04-09T04:28:54.080Z,35.97
2023-04-09T04:32:09.701Z,33.50
2023-04-09T04:35:15.776Z,35.80
2023-04-09T04:38:19.025Z,35.03
2023-04-09T04:41:22.068Z,37.30
2023-04-09T04:44:33.053Z,36.73
2023-04-09T04:47:46.892Z,35.13
2023-04-09T04:51:01.063Z,39.43
2023-04-09T04:54:10.879Z,38.70
2023-04-09T04:57:14.843Z,38.20
2023-04-09T05:00:18.828Z,39.37
2023-04-09T05:03:23.601Z,39.37
2023-04-09T05:06:37.236Z,37.60
2023-04-09T05:09:50.436Z,39.13
2023-04-09T05:12:53.582Z,37.60
2023-04-09T05:16:05.471Z,38.73
2023-04-09T05:19:10.178Z,38.03
2023-04-09T05:22:17.537Z,38.13
2023-04-09T05:25:21.806Z,35.60
2023-04-09T05:28:29.593Z,39.47
2023-04-09T05:31:43.044Z,37.50
2023-04-09T05:34:54.540Z,38.93
2023-04-09T05:37:59.677Z,36.87
2023-04-09T05:41:03.009Z,40.30
2023-04-09T05:44:06.665Z,39.43
2023-04-09T05:47:10.039Z,41.37
2023-04-09T05:50:38.014Z,41.83
2023-04-09T05:53:53.142Z,40.90
2023-04-09T05:56:57.390Z,41.07
2023-04-09T06:00:01.086Z,40.27
2023-04-09T06:03:04.558Z,43.03
2023-04-09T06:06:10.836Z,41.03
2023-04-09T06:09:15.145Z,42.90
2023-04-09T06:12:18.093Z,40.67
2023-04-09T06:15:21.703Z,40.87
2023-04-09T06:18:25.649Z,39.80
2023-04-09T06:21:28.644Z,39.87
2023-04-09T06:24:34.055Z,41.23
2023-04-09T06:27:37.015Z,41.70
2023-04-09T06:30:40.064Z,42.07
2023-04-09T06:33:43.138Z,44.27
2023-04-09T06:36:46.215Z,46.23
2023-04-09T06:40:00.531Z,43.97
2023-04-09T06:43:04.190Z,42.97
2023-04-09T06:46:17.312Z,42.83
2023-04-09T06:49:20.393Z,42.10
2023-04-09T06:52:23.405Z,41.77
2023-04-09T06:55:27.902Z,43.47
2023-04-09T06:58:30.930Z,43.83
2023-04-09T07:01:35.602Z,42.30
2023-04-09T07:04:38.844Z,41.50
2023-04-09T07:07:41.919Z,42.77
2023-04-09T07:10:47.327Z,41.60
2023-04-09T07:13:53.679Z,42.27
2023-04-09T07:16:57.261Z,42.27
2023-04-09T07:20:00.351Z,43.27
2023-04-09T07:23:03.342Z,40.67
2023-04-09T07:26:07.879Z,41.13
2023-04-09T07:29:11.027Z,41.93
2023-04-09T07:32:13.997Z,40.27
2023-04-09T07:35:18.540Z,40.53
2023-04-09T07:38:22.127Z,39.83
2023-04-09T07:41:26.485Z,41.93
2023-04-09T07:44:29.506Z,39.40
2023-04-09T07:47:32.989Z,39.70
2023-04-09T07:50:36.373Z,39.37
2023-04-09T07:53:39.338Z,40.97
2023-04-09T07:56:43.736Z,37.50
2023-04-09T07:59:47.154Z,36.13
2023-04-09T08:02:53.118Z,39.00
2023-04-09T08:05:56.358Z,40.00
2023-04-09T08:08:59.354Z,39.77
2023-04-09T08:12:04.452Z,39.47
2023-04-09T08:15:08.754Z,39.73
2023-04-09T08:18:12.148Z,38.33
2023-04-09T08:21:15.415Z,38.60
2023-04-09T08:24:18.456Z,38.60
2023-04-09T08:27:22.948Z,39.53
2023-04-09T08:30:26.282Z,38.67
2023-04-09T08:33:30.234Z,39.20
2023-04-09T08:36:35.348Z,36.60
2023-04-09T08:39:38.486Z,35.93
2023-04-09T08:42:46.606Z,35.93
2023-04-09T08:45:49.697Z,35.57
2023-04-09T08:48:53.622Z,37.83
2023-04-09T08:51:57.023Z,40.43
2023-04-09T08:55:00.379Z,39.93
2023-04-09T08:58:08.281Z,38.20
2023-04-09T09:01:25.965Z,38.57
2023-04-09T09:04:46.410Z,36.23
2023-04-09T09:07:55.202Z,36.23
2023-04-09T09:10:58.539Z,36.33
2023-04-09T09:14:05.559Z,37.83
2023-04-09T09:17:08.806Z,37.50
2023-04-09T09:20:21.687Z,36.57
2023-04-09T09:23:37.635Z,34.83
2023-04-09T09:26:40.955Z,36.23
2023-04-09T09:29:45.549Z,35.07
2023-04-09T09:32:52.429Z,35.63
2023-04-09T09:35:57.672Z,36.03
2023-04-09T09:39:05.524Z,35.77
2023-04-09T09:42:10.395Z,34.03
2023-04-09T09:45:20.528Z,36.40
2023-04-09T09:48:23.500Z,34.00
2023-04-09T09:51:32.617Z,34.40
2023-04-09T09:54:42.696Z,35.13
2023-04-09T09:57:50.494Z,33.13
2023-04-09T10:00:57.460Z,32.97
2023-04-09T10:04:02.650Z,33.70
2023-04-09T10:07:08.258Z,31.37
2023-04-09T10:10:11.727Z,30.70
2023-04-09T10:13:22.631Z,31.80
2023-04-09T10:16:28.203Z,30.30
2023-04-09T10:19:32.192Z,30.17
2023-04-09T10:22:36.805Z,30.13
2023-04-09T10:25:40.008Z,32.80
2023-04-09T10:28:44.549Z,30.17
2023-04-09T10:32:07.443Z,28.80
2023-04-09T10:35:11.146Z,31.13
2023-04-09T10:38:16.027Z,33.13
2023-04-09T10:41:26.326Z,30.53
2023-04-09T10:44:31.789Z,27.40
2023-04-09T10:47:38.001Z,29.30
2023-04-09T10:50:44.472Z,27.33
2023-04-09T10:53:47.633Z,26.07
2023-04-09T10:57:13.620Z,26.30
2023-04-09T11:00:18.702Z,27.40
2023-04-09T11:03:30.239Z,24.87
2023-04-09T11:06:37.041Z,25.40
2023-04-09T11:09:42.449Z,26.27
2023-04-09T11:12:47.752Z,26.10
2023-04-09T11:15:51.173Z,26.33
2023-04-09T11:18:56.166Z,27.27
2023-04-09T11:21:59.932Z,31.70
2023-04-09T11:25:03.183Z,29.73
2023-04-09T11:28:08.442Z,33.60
2023-04-09T11:31:11.588Z,34.30
2023-04-09T11:34:17.377Z,28.07
2023-04-09T11:37:20.550Z,28.00
2023-04-09T11:40:25.749Z,25.30
2023-04-09T11:43:28.766Z,23.60
2023-04-09T11:46:32.699Z,24.37
2023-04-09T11:49:38.321Z,23.97
2023-04-09T11:52:42.302Z,22.20
2023-04-09T11:55:49.548Z,22.30
2023-04-09T11:58:52.726Z,23.93
2023-04-09T12:01:58.640Z,23.55
2023-04-09T12:05:06.355Z,23.50
2023-04-09T12:08:10.358Z,21.97
2023-04-09T12:11:17.957Z,22.70
2023-04-09T12:14:23.455Z,21.03
2023-04-09T12:17:27.053Z,20.33
2023-04-09T12:20:35.191Z,21.27
2023-04-09T12:23:38.260Z,21.85
2023-04-09T12:26:41.256Z,20.75
2023-04-09T12:29:44.281Z,23.02
2023-04-09T12:32:47.362Z,22.02
2023-04-09T12:35:51.807Z,22.17
2023-04-09T12:38:54.965Z,20.60
2023-04-09T12:41:58.026Z,21.75
2023-04-09T12:45:01.181Z,22.25
2023-04-09T12:48:04.306Z,22.42
2023-04-09T12:51:11.154Z,23.00
2023-04-09T12:54:16.931Z,21.73
2023-04-09T12:57:19.933Z,22.77
2023-04-09T13:00:22.953Z,22.58
2023-04-09T13:03:27.520Z,21.63
2023-04-09T13:06:32.015Z,22.60
2023-04-09T13:09:36.460Z,23.45
2023-04-09T13:12:42.562Z,21.88
2023-04-09T13:15:46.623Z,21.55
2023-04-09T13:18:49.787Z,21.77
2023-04-09T13:21:54.091Z,21.70
2023-04-09T13:24:57.384Z,21.50
2023-04-09T13:28:01.026Z,20.75
2023-04-09T13:31:04.439Z,21.48
2023-04-09T13:34:10.493Z,20.45
2023-04-09T13:37:14.773Z,21.52
2023-04-09T13:40:18.091Z,23.98
2023-04-09T13:43:21.149Z,20.80
2023-04-09T13:46:26.074Z,20.75
2023-04-09T13:49:30.690Z,19.27
2023-04-09T13:52:35.053Z,20.35
2023-04-09T13:55:38.388Z,20.98
2023-04-09T13:58:41.687Z,19.35
2023-04-09T14:01:44.658Z,20.73
2023-04-09T14:04:48.250Z,20.60
2023-04-09T14:07:52.826Z,20.05
2023-04-09T14:10:56.762Z,21.92
2023-04-09T14:13:59.856Z,20.45
2023-04-09T14:17:03.103Z,18.70
2023-04-09T14:20:07.502Z,17.95
2023-04-09T14:23:11.836Z,20.17
2023-04-09T14:26:16.112Z,20.08
2023-04-09T14:29:19.111Z,19.52
2023-04-09T14:32:22.557Z,18.60
2023-04-09T14:35:26.177Z,18.20
2023-04-09T14:38:30.640Z,20.02
2023-04-09T14:41:36.591Z,18.60
2023-04-09T14:44:39.885Z,17.52
2023-04-09T14:47:42.875Z,19.65
2023-04-09T14:50:45.819Z,20.20
2023-04-09T14:53:53.190Z,18.63
2023-04-09T14:56:57.122Z,18.13
2023-04-09T15:00:00.128Z,18.60
2023-04-09T15:03:03.919Z,17.52
2023-04-09T15:06:07.536Z,19.02
2023-04-09T15:09:12.136Z,17.73
2023-04-09T15:12:16.762Z,16.67
2023-04-09T15:15:20.103Z,17.10
2023-04-09T15:18:23.182Z,16.85
2023-04-09T15:21:27.031Z,17.58
2023-04-09T15:24:31.364Z,16.92
2023-04-09T15:27:34.556Z,15.80
2023-04-09T15:30:37.572Z,15.80
2023-04-09T15:33:43.715Z,16.27
2023-04-09T15:36:47.228Z,15.38
2023-04-09T15:39:51.629Z,18.02
2023-04-09T15:42:54.873Z,17.10
2023-04-09T15:45:57.981Z,16.48
2023-04-09T15:49:01.057Z,16.50
2023-04-09T15:52:04.376Z,15.77
2023-04-09T15:55:10.176Z,18.10
2023-04-09T15:58:13.472Z,17.02
2023-04-09T16:01:17.287Z,19.55
2023-04-09T16:04:20.477Z,21.15
2023-04-09T16:07:23.899Z,19.50
2023-04-09T16:10:28.188Z,19.90
2023-04-09T16:13:31.357Z,19.10
2023-04-09T16:16:34.389Z,19.20
2023-04-09T16:19:37.400Z,18.33
2023-04-09T16:22:40.532Z,17.33
2023-04-09T16:25:44.846Z,16.80
2023-04-09T16:28:49.540Z,16.40
2023-04-09T16:31:52.795Z,14.17
2023-04-09T16:34:56.056Z,15.70
2023-04-09T16:37:59.501Z,16.13
2023-04-09T16:41:03.863Z,15.87
2023-04-09T16:44:07.265Z,15.67
2023-04-09T16:47:10.305Z,16.20
2023-04-09T16:50:13.743Z,15.87
2023-04-09T16:53:16.815Z,15.73
2023-04-09T16:56:21.186Z,15.60
2023-04-09T16:59:24.400Z,16.17
2023-04-09T17:02:27.706Z,16.33
2023-04-09T17:05:31.311Z,23.10
2023-04-09T17:08:36.401Z,19.43
2023-04-09T17:11:40.689Z,59.93
2023-04-09T17:14:44.467Z,18.60
2023-04-09T17:17:49.502Z,24.70
2023-04-09T17:20:53.695Z,18.80
2023-04-09T17:23:56.968Z,18.83
2023-04-09T17:27:01.284Z,19.50
2023-04-09T17:30:06.695Z,23.30
2023-04-09T17:33:09.972Z,22.97
2023-04-09T17:36:13.097Z,22.07
2023-04-09T17:39:16.154Z,21.33
2023-04-09T17:42:22.049Z,20.23
2023-04-09T17:45:25.135Z,22.20
2023-04-09T17:48:30.120Z,20.77
2023-04-09T17:51:34.441Z,21.90
2023-04-09T17:54:38.618Z,21.80
2023-04-09T17:57:42.974Z,21.27
2023-04-09T18:00:46.282Z,22.70
2023-04-09T18:03:49.642Z,22.37
2023-04-09T18:06:53.156Z,22.10
2023-04-09T18:09:56.656Z,23.13
2023-04-09T18:13:00.964Z,32.10
2023-04-09T18:16:09.794Z,33.43
2023-04-09T18:19:15.487Z,49.17
2023-04-09T18:22:18.650Z,57.77
2023-04-09T18:25:23.152Z,52.00
2023-04-09T18:28:28.009Z,61.50
2023-04-09T18:31:31.270Z,52.10
2023-04-09T18:34:38.105Z,42.73
2023-04-09T18:37:41.223Z,40.87
2023-04-09T18:40:45.420Z,42.63
2023-04-09T18:43:49.844Z,60.97
2023-04-09T18:46:53.006Z,53.13
2023-04-09T18:49:58.514Z,54.97
2023-04-09T18:53:04.797Z,42.27
2023-04-09T18:56:13.002Z,45.97
2023-04-09T18:59:17.914Z,45.27
2023-04-09T19:02:22.482Z,28.83
2023-04-09T19:05:29.543Z,31.53
2023-04-09T19:08:38.382Z,33.07
2023-04-09T19:11:43.541Z,30.07
2023-04-09T19:14:48.050Z,28.33
2023-04-09T19:17:52.151Z,29.10
2023-04-09T19:20:57.592Z,26.00
2023-04-09T19:24:06.248Z,32.00
2023-04-09T19:27:13.164Z,31.20
2023-04-09T19:30:22.059Z,31.60
2023-04-09T19:33:27.935Z,37.93
2023-04-09T19:36:42.699Z,33.17
2023-04-09T19:39:56.512Z,29.90
2023-04-09T19:43:01.779Z,29.80
2023-04-09T19:46:14.041Z,29.73
2023-04-09T19:49:23.485Z,28.20
2023-04-09T19:52:30.424Z,33.13
2023-04-09T19:55:33.419Z,27.87
2023-04-09T19:58:41.835Z,28.47
2023-04-09T20:01:53.024Z,30.53
2023-04-09T20:04:56.046Z,39.93
2023-04-09T20:07:59.298Z,38.37
2023-04-09T20:11:02.364Z,34.93
2023-04-09T20:14:05.396Z,38.60
2023-04-09T20:17:10.715Z,34.80
2023-04-09T20:20:13.837Z,34.50
2023-04-09T20:23:16.816Z,33.00
2023-04-09T20:26:19.844Z,32.23
2023-04-09T20:29:23.149Z,34.87
2023-04-09T20:32:27.617Z,36.80
2023-04-09T20:35:30.628Z,33.93
2023-04-09T20:38:33.704Z,33.80
2023-04-09T20:41:36.825Z,34.27
2023-04-09T20:44:39.803Z,32.67
2023-04-09T20:47:44.164Z,33.97
2023-04-09T20:50:47.130Z,34.33
2023-04-09T20:53:50.159Z,32.97
2023-04-09T20:56:53.176Z,35.40
2023-04-09T20:59:56.140Z,36.23
2023-04-09T21:03:00.839Z,32.90
2023-04-09T21:06:04.259Z,33.57
2023-04-09T21:09:07.434Z,33.43
2023-04-09T21:12:10.373Z,34.50
2023-04-09T21:15:13.468Z,36.90
2023-04-09T21:18:18.872Z,37.37
2023-04-09T21:21:21.941Z,36.50
2023-04-09T21:24:24.984Z,36.73
2023-04-09T21:27:27.957Z,36.10
2023-04-09T21:30:32.266Z,36.80
2023-04-09T21:33:36.618Z,35.73
2023-04-09T21:36:39.804Z,36.77
2023-04-09T21:39:42.767Z,35.43
2023-04-09T21:42:45.878Z,34.07
2023-04-09T21:45:48.939Z,33.40
2023-04-09T21:48:53.411Z,34.27
2023-04-09T21:51:58.832Z,35.10
2023-04-09T21:55:02.092Z,34.13
2023-04-09T21:58:05.289Z,32.97
2023-04-09T22:01:15.787Z,31.47
2023-04-09T22:04:27.097Z,31.87
2023-04-09T22:07:32.282Z,31.40
2023-04-09T22:10:35.821Z,32.07
2023-04-09T22:13:38.862Z,31.50
2023-04-09T22:16:42.204Z,29.77
2023-04-09T22:19:46.694Z,30.67
2023-04-09T22:22:49.868Z,31.70
2023-04-09T22:26:00.862Z,31.60
2023-04-09T22:29:05.716Z,32.00
2023-04-09T22:32:10.867Z,32.50
2023-04-09T22:35:18.402Z,32.20
2023-04-09T22:38:23.264Z,31.60
2023-04-09T22:41:26.410Z,32.27
2023-04-09T22:44:29.614Z,32.37
2023-04-09T22:47:32.722Z,30.50
2023-04-09T22:50:37.664Z,32.00
2023-04-09T22:53:41.084Z,32.07
2023-04-09T22:56:44.776Z,30.70
2023-04-09T22:59:48.462Z,32.00
2023-04-09T23:02:51.678Z,31.97
2023-04-09T23:05:56.311Z,30.23
2023-04-09T23:08:59.900Z,29.80
2023-04-09T23:12:03.267Z,32.50
2023-04-09T23:15:07.885Z,28.57
2023-04-09T23:18:11.096Z,29.23
2023-04-09T23:21:15.700Z,29.77
2023-04-09T23:24:19.259Z,30.57
2023-04-09T23:27:28.150Z,28.73
2023-04-09T23:30:32.252Z,26.33
2023-04-09T23:33:35.432Z,28.67
2023-04-09T23:36:40.233Z,26.90
2023-04-09T23:39:43.545Z,26.17
2023-04-09T23:42:47.917Z,29.47
2023-04-09T23:45:52.120Z,27.27
2023-04-09T23:48:55.330Z,29.07
2023-04-09T23:51:59.767Z,27.53
2023-04-09T23:55:03.064Z,27.50
2023-04-09T23:58:09.823Z,26.17
